sensor_id;sensor_type;location;lat;lon;timestamp;temperature;humidity
18085;DHT22;9169;44.492;11.372;2023-10-08T00:01:10;24.40;46.70
18085;DHT22;9169;44.492;11.372;2023-10-08T00:03:42;24.40;46.70
18085;DHT22;9169;44.492;11.372;2023-10-08T00:06:16;24.40;46.90
18085;DHT22;9169;44.492;11.372;2023-10-08T00:08:47;24.40;46.90
18085;DHT22;9169;44.492;11.372;2023-10-08T00:11:18;24.40;47.00
18085;DHT22;9169;44.492;11.372;2023-10-08T00:13:50;24.40;47.00
18085;DHT22;9169;44.492;11.372;2023-10-08T00:16:23;24.40;47.10
18085;DHT22;9169;44.492;11.372;2023-10-08T00:18:53;24.40;47.00
18085;DHT22;9169;44.492;11.372;2023-10-08T00:21:26;24.40;47.10
18085;DHT22;9169;44.492;11.372;2023-10-08T00:23:55;24.30;47.10
18085;DHT22;9169;44.492;11.372;2023-10-08T00:26:28;24.30;47.10
18085;DHT22;9169;44.492;11.372;2023-10-08T00:28:58;24.30;47.10
18085;DHT22;9169;44.492;11.372;2023-10-08T00:31:28;24.30;47.10
18085;DHT22;9169;44.492;11.372;2023-10-08T00:34:05;24.30;47.10
18085;DHT22;9169;44.492;11.372;2023-10-08T00:36:39;24.30;47.10
18085;DHT22;9169;44.492;11.372;2023-10-08T00:39:09;24.30;47.10
18085;DHT22;9169;44.492;11.372;2023-10-08T00:41:43;24.30;47.10
18085;DHT22;9169;44.492;11.372;2023-10-08T00:44:13;24.30;47.30
18085;DHT22;9169;44.492;11.372;2023-10-08T00:46:44;24.20;47.30
18085;DHT22;9169;44.492;11.372;2023-10-08T00:49:17;24.20;47.90
18085;DHT22;9169;44.492;11.372;2023-10-08T00:52:03;24.10;47.40
18085;DHT22;9169;44.492;11.372;2023-10-08T00:54:52;24.10;47.40
18085;DHT22;9169;44.492;11.372;2023-10-08T00:57:35;24.10;47.30
18085;DHT22;9169;44.492;11.372;2023-10-08T01:00:07;24.10;47.40
18085;DHT22;9169;44.492;11.372;2023-10-08T01:02:44;24.10;47.50
18085;DHT22;9169;44.492;11.372;2023-10-08T01:05:22;24.00;47.50
18085;DHT22;9169;44.492;11.372;2023-10-08T01:08:09;24.00;47.50
18085;DHT22;9169;44.492;11.372;2023-10-08T01:10:42;24.00;47.50
18085;DHT22;9169;44.492;11.372;2023-10-08T01:13:15;24.00;47.60
18085;DHT22;9169;44.492;11.372;2023-10-08T01:15:48;24.00;47.70
18085;DHT22;9169;44.492;11.372;2023-10-08T01:18:19;24.00;47.60
18085;DHT22;9169;44.492;11.372;2023-10-08T01:20:58;23.90;47.60
18085;DHT22;9169;44.492;11.372;2023-10-08T01:23:37;23.90;47.80
18085;DHT22;9169;44.492;11.372;2023-10-08T01:26:07;23.90;47.90
18085;DHT22;9169;44.492;11.372;2023-10-08T01:28:39;23.80;47.90
18085;DHT22;9169;44.492;11.372;2023-10-08T01:31:11;23.80;48.00
18085;DHT22;9169;44.492;11.372;2023-10-08T01:33:40;23.80;48.00
18085;DHT22;9169;44.492;11.372;2023-10-08T01:36:17;23.80;47.90
18085;DHT22;9169;44.492;11.372;2023-10-08T01:38:47;23.80;47.80
18085;DHT22;9169;44.492;11.372;2023-10-08T01:41:17;23.80;47.80
18085;DHT22;9169;44.492;11.372;2023-10-08T01:43:57;23.80;47.80
18085;DHT22;9169;44.492;11.372;2023-10-08T01:46:26;23.80;47.80
18085;DHT22;9169;44.492;11.372;2023-10-08T01:48:56;23.80;47.80
18085;DHT22;9169;44.492;11.372;2023-10-08T01:51:31;23.80;47.80
18085;DHT22;9169;44.492;11.372;2023-10-08T01:54:07;23.70;47.70
18085;DHT22;9169;44.492;11.372;2023-10-08T01:56:39;23.70;47.80
18085;DHT22;9169;44.492;11.372;2023-10-08T01:59:11;23.70;47.70
18085;DHT22;9169;44.492;11.372;2023-10-08T02:01:41;23.70;47.70
18085;DHT22;9169;44.492;11.372;2023-10-08T02:04:11;23.70;47.70
18085;DHT22;9169;44.492;11.372;2023-10-08T02:06:40;23.70;47.80
18085;DHT22;9169;44.492;11.372;2023-10-08T02:09:10;23.60;47.80
18085;DHT22;9169;44.492;11.372;2023-10-08T02:11:42;23.60;47.80
18085;DHT22;9169;44.492;11.372;2023-10-08T02:14:11;23.60;47.80
18085;DHT22;9169;44.492;11.372;2023-10-08T02:16:43;23.60;47.90
18085;DHT22;9169;44.492;11.372;2023-10-08T02:19:12;23.60;47.90
18085;DHT22;9169;44.492;11.372;2023-10-08T02:21:45;23.60;48.10
18085;DHT22;9169;44.492;11.372;2023-10-08T02:24:16;23.60;48.30
18085;DHT22;9169;44.492;11.372;2023-10-08T02:26:45;23.60;48.40
18085;DHT22;9169;44.492;11.372;2023-10-08T02:29:13;23.50;48.30
18085;DHT22;9169;44.492;11.372;2023-10-08T02:31:42;23.50;48.30
18085;DHT22;9169;44.492;11.372;2023-10-08T02:34:12;23.50;48.50
18085;DHT22;9169;44.492;11.372;2023-10-08T02:36:41;23.50;48.60
18085;DHT22;9169;44.492;11.372;2023-10-08T02:39:10;23.40;48.50
18085;DHT22;9169;44.492;11.372;2023-10-08T02:41:46;23.40;48.50
18085;DHT22;9169;44.492;11.372;2023-10-08T02:44:16;23.40;48.50
18085;DHT22;9169;44.492;11.372;2023-10-08T02:46:45;23.40;48.50
18085;DHT22;9169;44.492;11.372;2023-10-08T02:49:17;23.30;48.40
18085;DHT22;9169;44.492;11.372;2023-10-08T02:51:48;23.30;48.50
18085;DHT22;9169;44.492;11.372;2023-10-08T02:54:19;23.30;48.60
18085;DHT22;9169;44.492;11.372;2023-10-08T02:56:53;23.30;48.90
18085;DHT22;9169;44.492;11.372;2023-10-08T02:59:28;23.30;48.90
18085;DHT22;9169;44.492;11.372;2023-10-08T03:02:07;23.20;48.90
18085;DHT22;9169;44.492;11.372;2023-10-08T03:04:42;23.20;49.10
18085;DHT22;9169;44.492;11.372;2023-10-08T03:07:12;23.10;49.10
18085;DHT22;9169;44.492;11.372;2023-10-08T03:09:51;23.10;49.20
18085;DHT22;9169;44.492;11.372;2023-10-08T03:12:33;23.10;49.20
18085;DHT22;9169;44.492;11.372;2023-10-08T03:15:04;23.10;49.10
18085;DHT22;9169;44.492;11.372;2023-10-08T03:17:41;23.10;49.00
18085;DHT22;9169;44.492;11.372;2023-10-08T03:20:18;23.00;49.10
18085;DHT22;9169;44.492;11.372;2023-10-08T03:22:57;23.10;49.30
18085;DHT22;9169;44.492;11.372;2023-10-08T03:25:26;23.10;49.40
18085;DHT22;9169;44.492;11.372;2023-10-08T03:27:57;23.00;49.30
18085;DHT22;9169;44.492;11.372;2023-10-08T03:30:26;23.00;49.40
18085;DHT22;9169;44.492;11.372;2023-10-08T03:32:56;23.00;49.30
18085;DHT22;9169;44.492;11.372;2023-10-08T03:35:26;23.00;49.20
18085;DHT22;9169;44.492;11.372;2023-10-08T03:38:00;23.00;49.20
18085;DHT22;9169;44.492;11.372;2023-10-08T03:40:47;23.00;49.50
18085;DHT22;9169;44.492;11.372;2023-10-08T03:43:19;23.00;49.40
18085;DHT22;9169;44.492;11.372;2023-10-08T03:45:57;23.00;49.40
18085;DHT22;9169;44.492;11.372;2023-10-08T03:48:27;23.00;49.40
18085;DHT22;9169;44.492;11.372;2023-10-08T03:51:01;23.00;49.50
18085;DHT22;9169;44.492;11.372;2023-10-08T03:53:34;23.00;49.70
18085;DHT22;9169;44.492;11.372;2023-10-08T03:56:09;23.00;49.50
18085;DHT22;9169;44.492;11.372;2023-10-08T03:58:43;23.00;49.50
18085;DHT22;9169;44.492;11.372;2023-10-08T04:01:14;23.00;49.50
18085;DHT22;9169;44.492;11.372;2023-10-08T04:03:46;23.00;49.40
18085;DHT22;9169;44.492;11.372;2023-10-08T04:06:27;23.00;49.50
18085;DHT22;9169;44.492;11.372;2023-10-08T04:09:06;23.00;49.60
18085;DHT22;9169;44.492;11.372;2023-10-08T04:11:44;23.00;49.60
18085;DHT22;9169;44.492;11.372;2023-10-08T04:14:24;23.00;49.70
18085;DHT22;9169;44.492;11.372;2023-10-08T04:16:55;23.00;49.70
18085;DHT22;9169;44.492;11.372;2023-10-08T04:19:26;23.00;49.70
18085;DHT22;9169;44.492;11.372;2023-10-08T04:21:56;23.00;49.70
18085;DHT22;9169;44.492;11.372;2023-10-08T04:24:25;22.90;49.70
18085;DHT22;9169;44.492;11.372;2023-10-08T04:27:02;22.90;49.80
18085;DHT22;9169;44.492;11.372;2023-10-08T04:29:38;22.90;49.70
18085;DHT22;9169;44.492;11.372;2023-10-08T04:32:09;22.90;49.70
18085;DHT22;9169;44.492;11.372;2023-10-08T04:34:48;22.90;49.80
18085;DHT22;9169;44.492;11.372;2023-10-08T04:37:20;22.90;49.80
18085;DHT22;9169;44.492;11.372;2023-10-08T04:39:48;22.90;49.90
18085;DHT22;9169;44.492;11.372;2023-10-08T04:42:26;22.90;49.80
18085;DHT22;9169;44.492;11.372;2023-10-08T04:44:56;22.90;49.90
18085;DHT22;9169;44.492;11.372;2023-10-08T04:47:26;22.90;50.00
18085;DHT22;9169;44.492;11.372;2023-10-08T04:50:03;22.90;50.00
18085;DHT22;9169;44.492;11.372;2023-10-08T04:52:33;22.90;50.00
18085;DHT22;9169;44.492;11.372;2023-10-08T04:55:14;22.90;50.10
18085;DHT22;9169;44.492;11.372;2023-10-08T04:57:47;22.90;50.10
18085;DHT22;9169;44.492;11.372;2023-10-08T05:00:19;22.90;50.20
18085;DHT22;9169;44.492;11.372;2023-10-08T05:03:08;22.90;50.20
18085;DHT22;9169;44.492;11.372;2023-10-08T05:05:41;22.90;50.20
18085;DHT22;9169;44.492;11.372;2023-10-08T05:08:34;22.90;50.20
18085;DHT22;9169;44.492;11.372;2023-10-08T05:11:14;22.90;50.20
18085;DHT22;9169;44.492;11.372;2023-10-08T05:13:51;22.90;50.20
18085;DHT22;9169;44.492;11.372;2023-10-08T05:16:35;22.90;50.30
18085;DHT22;9169;44.492;11.372;2023-10-08T05:19:11;22.90;50.20
18085;DHT22;9169;44.492;11.372;2023-10-08T05:22:16;22.90;50.30
18085;DHT22;9169;44.492;11.372;2023-10-08T05:25:11;22.90;50.30
18085;DHT22;9169;44.492;11.372;2023-10-08T05:27:53;22.90;50.20
18085;DHT22;9169;44.492;11.372;2023-10-08T05:30:26;22.90;50.20
18085;DHT22;9169;44.492;11.372;2023-10-08T05:33:08;22.90;50.20
18085;DHT22;9169;44.492;11.372;2023-10-08T05:35:53;22.90;50.20
18085;DHT22;9169;44.492;11.372;2023-10-08T05:38:37;22.90;50.20
18085;DHT22;9169;44.492;11.372;2023-10-08T05:41:22;22.90;50.20
18085;DHT22;9169;44.492;11.372;2023-10-08T05:44:06;22.90;50.20
18085;DHT22;9169;44.492;11.372;2023-10-08T05:46:51;22.90;50.30
18085;DHT22;9169;44.492;11.372;2023-10-08T05:49:49;22.90;50.20
18085;DHT22;9169;44.492;11.372;2023-10-08T05:52:43;22.90;50.30
18085;DHT22;9169;44.492;11.372;2023-10-08T05:55:18;22.90;50.30
18085;DHT22;9169;44.492;11.372;2023-10-08T05:57:53;22.90;50.30
18085;DHT22;9169;44.492;11.372;2023-10-08T06:00:41;22.90;50.40
18085;DHT22;9169;44.492;11.372;2023-10-08T06:03:30;22.80;50.30
18085;DHT22;9169;44.492;11.372;2023-10-08T06:06:07;22.90;50.50
18085;DHT22;9169;44.492;11.372;2023-10-08T06:08:50;22.90;50.60
18085;DHT22;9169;44.492;11.372;2023-10-08T06:11:49;22.80;50.60
18085;DHT22;9169;44.492;11.372;2023-10-08T06:14:40;22.90;50.60
18085;DHT22;9169;44.492;11.372;2023-10-08T06:17:35;22.90;50.60
18085;DHT22;9169;44.492;11.372;2023-10-08T06:20:34;22.90;50.70
18085;DHT22;9169;44.492;11.372;2023-10-08T06:23:04;23.00;50.90
18085;DHT22;9169;44.492;11.372;2023-10-08T06:25:34;23.00;50.90
18085;DHT22;9169;44.492;11.372;2023-10-08T06:28:16;23.00;50.90
18085;DHT22;9169;44.492;11.372;2023-10-08T06:30:47;23.00;50.90
18085;DHT22;9169;44.492;11.372;2023-10-08T06:33:17;23.10;50.90
18085;DHT22;9169;44.492;11.372;2023-10-08T06:35:45;23.10;51.00
18085;DHT22;9169;44.492;11.372;2023-10-08T06:38:33;23.10;51.00
18085;DHT22;9169;44.492;11.372;2023-10-08T06:41:03;23.10;51.00
18085;DHT22;9169;44.492;11.372;2023-10-08T06:43:36;23.10;51.00
18085;DHT22;9169;44.492;11.372;2023-10-08T06:46:05;23.20;51.10
18085;DHT22;9169;44.492;11.372;2023-10-08T06:48:35;23.20;51.10
18085;DHT22;9169;44.492;11.372;2023-10-08T06:51:07;23.20;51.00
18085;DHT22;9169;44.492;11.372;2023-10-08T06:53:42;23.30;51.10
18085;DHT22;9169;44.492;11.372;2023-10-08T06:56:12;23.30;51.10
18085;DHT22;9169;44.492;11.372;2023-10-08T06:58:43;23.30;51.00
18085;DHT22;9169;44.492;11.372;2023-10-08T07:01:16;23.30;51.10
18085;DHT22;9169;44.492;11.372;2023-10-08T07:03:49;23.40;51.20
18085;DHT22;9169;44.492;11.372;2023-10-08T07:06:19;23.40;51.10
18085;DHT22;9169;44.492;11.372;2023-10-08T07:09:01;23.40;51.10
18085;DHT22;9169;44.492;11.372;2023-10-08T07:11:32;23.50;51.20
18085;DHT22;9169;44.492;11.372;2023-10-08T07:14:03;23.50;51.20
18085;DHT22;9169;44.492;11.372;2023-10-08T07:16:32;23.60;51.30
18085;DHT22;9169;44.492;11.372;2023-10-08T07:19:01;23.60;51.50
18085;DHT22;9169;44.492;11.372;2023-10-08T07:21:44;23.70;51.70
18085;DHT22;9169;44.492;11.372;2023-10-08T07:24:15;23.80;52.10
18085;DHT22;9169;44.492;11.372;2023-10-08T07:26:44;23.90;52.70
18085;DHT22;9169;44.492;11.372;2023-10-08T07:29:16;24.10;52.50
18085;DHT22;9169;44.492;11.372;2023-10-08T07:31:46;24.30;52.10
18085;DHT22;9169;44.492;11.372;2023-10-08T07:34:19;24.40;51.70
18085;DHT22;9169;44.492;11.372;2023-10-08T07:36:54;24.50;51.40
18085;DHT22;9169;44.492;11.372;2023-10-08T07:39:25;24.60;51.30
18085;DHT22;9169;44.492;11.372;2023-10-08T07:42:02;24.70;51.30
18085;DHT22;9169;44.492;11.372;2023-10-08T07:44:33;24.80;51.50
18085;DHT22;9169;44.492;11.372;2023-10-08T07:47:03;24.90;51.20
18085;DHT22;9169;44.492;11.372;2023-10-08T07:49:37;25.10;51.30
18085;DHT22;9169;44.492;11.372;2023-10-08T07:52:08;25.30;51.40
18085;DHT22;9169;44.492;11.372;2023-10-08T07:54:44;25.50;51.60
18085;DHT22;9169;44.492;11.372;2023-10-08T07:57:13;25.60;50.60
18085;DHT22;9169;44.492;11.372;2023-10-08T07:59:46;25.60;50.20
18085;DHT22;9169;44.492;11.372;2023-10-08T08:02:16;25.60;50.00
18085;DHT22;9169;44.492;11.372;2023-10-08T08:04:51;25.60;50.00
18085;DHT22;9169;44.492;11.372;2023-10-08T08:07:20;25.60;50.00
18085;DHT22;9169;44.492;11.372;2023-10-08T08:09:52;25.70;50.30
18085;DHT22;9169;44.492;11.372;2023-10-08T08:12:27;25.90;50.50
18085;DHT22;9169;44.492;11.372;2023-10-08T08:15:00;26.20;50.40
18085;DHT22;9169;44.492;11.372;2023-10-08T08:17:30;26.50;50.00
18085;DHT22;9169;44.492;11.372;2023-10-08T08:20:00;26.60;49.60
18085;DHT22;9169;44.492;11.372;2023-10-08T08:22:45;26.60;49.20
18085;DHT22;9169;44.492;11.372;2023-10-08T08:25:19;26.60;49.10
18085;DHT22;9169;44.492;11.372;2023-10-08T08:28:01;26.60;48.90
18085;DHT22;9169;44.492;11.372;2023-10-08T08:30:35;26.60;48.70
18085;DHT22;9169;44.492;11.372;2023-10-08T08:33:07;26.50;48.50
18085;DHT22;9169;44.492;11.372;2023-10-08T08:35:38;26.50;48.50
18085;DHT22;9169;44.492;11.372;2023-10-08T08:38:07;26.50;48.50
18085;DHT22;9169;44.492;11.372;2023-10-08T08:40:39;26.50;48.60
18085;DHT22;9169;44.492;11.372;2023-10-08T08:43:08;26.60;48.70
18085;DHT22;9169;44.492;11.372;2023-10-08T08:45:39;26.70;48.70
18085;DHT22;9169;44.492;11.372;2023-10-08T08:48:08;26.80;48.60
18085;DHT22;9169;44.492;11.372;2023-10-08T08:50:39;26.90;48.40
18085;DHT22;9169;44.492;11.372;2023-10-08T08:53:09;26.90;48.30
18085;DHT22;9169;44.492;11.372;2023-10-08T08:55:40;26.90;48.20
18085;DHT22;9169;44.492;11.372;2023-10-08T08:58:11;26.90;48.20
18085;DHT22;9169;44.492;11.372;2023-10-08T09:00:41;26.90;48.10
18085;DHT22;9169;44.492;11.372;2023-10-08T09:03:16;26.90;48.30
18085;DHT22;9169;44.492;11.372;2023-10-08T09:05:47;26.80;48.30
18085;DHT22;9169;44.492;11.372;2023-10-08T09:08:18;26.90;48.20
18085;DHT22;9169;44.492;11.372;2023-10-08T09:10:52;27.00;48.20
18085;DHT22;9169;44.492;11.372;2023-10-08T09:13:28;27.00;48.10
18085;DHT22;9169;44.492;11.372;2023-10-08T09:16:01;26.90;48.00
18085;DHT22;9169;44.492;11.372;2023-10-08T09:18:31;27.00;48.20
18085;DHT22;9169;44.492;11.372;2023-10-08T09:21:11;27.10;48.20
18085;DHT22;9169;44.492;11.372;2023-10-08T09:23:40;27.10;48.00
18085;DHT22;9169;44.492;11.372;2023-10-08T09:26:16;27.20;48.10
18085;DHT22;9169;44.492;11.372;2023-10-08T09:28:46;27.30;48.40
18085;DHT22;9169;44.492;11.372;2023-10-08T09:31:15;27.50;48.40
18085;DHT22;9169;44.492;11.372;2023-10-08T09:33:53;27.80;48.70
18085;DHT22;9169;44.492;11.372;2023-10-08T09:36:23;28.10;48.10
18085;DHT22;9169;44.492;11.372;2023-10-08T09:39:00;28.40;47.90
18085;DHT22;9169;44.492;11.372;2023-10-08T09:41:33;28.60;47.50
18085;DHT22;9169;44.492;11.372;2023-10-08T09:44:04;28.70;47.00
18085;DHT22;9169;44.492;11.372;2023-10-08T09:46:40;28.80;46.80
18085;DHT22;9169;44.492;11.372;2023-10-08T09:49:15;28.90;46.60
18085;DHT22;9169;44.492;11.372;2023-10-08T09:51:46;28.90;46.60
18085;DHT22;9169;44.492;11.372;2023-10-08T09:54:20;29.10;46.80
18085;DHT22;9169;44.492;11.372;2023-10-08T09:56:55;29.30;46.70
18085;DHT22;9169;44.492;11.372;2023-10-08T09:59:26;29.70;46.80
18085;DHT22;9169;44.492;11.372;2023-10-08T10:01:56;30.20;46.70
18085;DHT22;9169;44.492;11.372;2023-10-08T10:04:30;30.80;46.20
18085;DHT22;9169;44.492;11.372;2023-10-08T10:07:09;31.40;45.70
18085;DHT22;9169;44.492;11.372;2023-10-08T10:09:43;32.10;45.20
18085;DHT22;9169;44.492;11.372;2023-10-08T10:12:25;32.60;44.70
18085;DHT22;9169;44.492;11.372;2023-10-08T10:14:55;33.20;43.70
18085;DHT22;9169;44.492;11.372;2023-10-08T10:17:26;33.60;43.30
18085;DHT22;9169;44.492;11.372;2023-10-08T10:20:10;34.10;42.80
18085;DHT22;9169;44.492;11.372;2023-10-08T10:22:42;34.60;42.20
18085;DHT22;9169;44.492;11.372;2023-10-08T10:25:11;35.10;42.00
18085;DHT22;9169;44.492;11.372;2023-10-08T10:30:44;36.10;39.50
18085;DHT22;9169;44.492;11.372;2023-10-08T10:33:14;36.60;39.40
18085;DHT22;9169;44.492;11.372;2023-10-08T10:35:50;36.90;38.80
18085;DHT22;9169;44.492;11.372;2023-10-08T10:38:19;37.20;38.30
18085;DHT22;9169;44.492;11.372;2023-10-08T10:40:53;37.30;37.40
18085;DHT22;9169;44.492;11.372;2023-10-08T10:43:29;37.20;37.20
18085;DHT22;9169;44.492;11.372;2023-10-08T10:46:02;36.70;37.30
18085;DHT22;9169;44.492;11.372;2023-10-08T10:48:52;36.20;36.90
18085;DHT22;9169;44.492;11.372;2023-10-08T10:51:47;35.70;36.90
18085;DHT22;9169;44.492;11.372;2023-10-08T10:54:17;35.30;37.10
18085;DHT22;9169;44.492;11.372;2023-10-08T10:56:51;35.00;37.40
18085;DHT22;9169;44.492;11.372;2023-10-08T10:59:31;34.80;37.20
18085;DHT22;9169;44.492;11.372;2023-10-08T11:02:06;34.50;37.80
18085;DHT22;9169;44.492;11.372;2023-10-08T11:04:36;34.20;37.50
18085;DHT22;9169;44.492;11.372;2023-10-08T11:07:15;33.80;37.60
18085;DHT22;9169;44.492;11.372;2023-10-08T11:09:47;33.60;38.00
18085;DHT22;9169;44.492;11.372;2023-10-08T11:12:16;33.30;37.60
18085;DHT22;9169;44.492;11.372;2023-10-08T11:14:50;33.10;37.80
18085;DHT22;9169;44.492;11.372;2023-10-08T11:17:24;32.80;37.60
18085;DHT22;9169;44.492;11.372;2023-10-08T11:19:55;32.60;38.00
18085;DHT22;9169;44.492;11.372;2023-10-08T11:22:40;32.40;38.10
18085;DHT22;9169;44.492;11.372;2023-10-08T11:25:21;32.30;38.40
18085;DHT22;9169;44.492;11.372;2023-10-08T11:27:55;32.10;38.50
18085;DHT22;9169;44.492;11.372;2023-10-08T11:30:29;32.00;38.50
18085;DHT22;9169;44.492;11.372;2023-10-08T11:33:00;31.90;38.50
18085;DHT22;9169;44.492;11.372;2023-10-08T11:35:29;31.90;38.80
18085;DHT22;9169;44.492;11.372;2023-10-08T11:38:01;31.80;39.10
18085;DHT22;9169;44.492;11.372;2023-10-08T11:40:30;31.70;39.10
18085;DHT22;9169;44.492;11.372;2023-10-08T11:43:16;31.70;39.30
18085;DHT22;9169;44.492;11.372;2023-10-08T11:45:45;31.60;39.20
18085;DHT22;9169;44.492;11.372;2023-10-08T11:48:17;31.60;39.30
18085;DHT22;9169;44.492;11.372;2023-10-08T11:50:55;31.50;39.20
18085;DHT22;9169;44.492;11.372;2023-10-08T11:53:24;31.50;39.40
18085;DHT22;9169;44.492;11.372;2023-10-08T11:55:53;31.40;39.40
18085;DHT22;9169;44.492;11.372;2023-10-08T11:58:24;31.40;39.50
18085;DHT22;9169;44.492;11.372;2023-10-08T12:01:04;31.40;39.50
18085;DHT22;9169;44.492;11.372;2023-10-08T12:03:35;31.30;39.40
18085;DHT22;9169;44.492;11.372;2023-10-08T12:06:04;31.30;39.40
18085;DHT22;9169;44.492;11.372;2023-10-08T12:08:32;31.30;39.40
18085;DHT22;9169;44.492;11.372;2023-10-08T12:11:06;31.20;39.10
18085;DHT22;9169;44.492;11.372;2023-10-08T12:13:39;31.30;39.20
18085;DHT22;9169;44.492;11.372;2023-10-08T12:16:12;31.20;39.40
18085;DHT22;9169;44.492;11.372;2023-10-08T12:18:47;31.20;39.40
18085;DHT22;9169;44.492;11.372;2023-10-08T12:21:26;31.30;39.50
18085;DHT22;9169;44.492;11.372;2023-10-08T12:23:57;31.30;39.80
18085;DHT22;9169;44.492;11.372;2023-10-08T12:26:26;31.30;39.70
18085;DHT22;9169;44.492;11.372;2023-10-08T12:28:55;31.30;39.20
18085;DHT22;9169;44.492;11.372;2023-10-08T12:31:24;31.30;39.10
18085;DHT22;9169;44.492;11.372;2023-10-08T12:33:57;31.40;39.20
18085;DHT22;9169;44.492;11.372;2023-10-08T12:36:27;31.40;39.20
18085;DHT22;9169;44.492;11.372;2023-10-08T12:39:00;31.50;39.10
18085;DHT22;9169;44.492;11.372;2023-10-08T12:41:36;31.60;39.50
18085;DHT22;9169;44.492;11.372;2023-10-08T12:44:06;32.10;40.40
18085;DHT22;9169;44.492;11.372;2023-10-08T12:46:36;32.90;39.70
18085;DHT22;9169;44.492;11.372;2023-10-08T12:49:06;33.80;39.20
18085;DHT22;9169;44.492;11.372;2023-10-08T12:51:35;34.70;39.20
18085;DHT22;9169;44.492;11.372;2023-10-08T12:54:08;35.60;38.60
18085;DHT22;9169;44.492;11.372;2023-10-08T12:56:40;36.50;38.20
18085;DHT22;9169;44.492;11.372;2023-10-08T12:59:12;37.20;37.60
18085;DHT22;9169;44.492;11.372;2023-10-08T13:01:48;37.90;36.70
18085;DHT22;9169;44.492;11.372;2023-10-08T13:04:21;38.60;35.40
18085;DHT22;9169;44.492;11.372;2023-10-08T13:06:54;39.10;34.60
18085;DHT22;9169;44.492;11.372;2023-10-08T13:09:24;39.70;34.10
18085;DHT22;9169;44.492;11.372;2023-10-08T13:11:53;40.20;33.60
18085;DHT22;9169;44.492;11.372;2023-10-08T13:14:23;40.50;32.80
18085;DHT22;9169;44.492;11.372;2023-10-08T13:16:52;40.80;32.20
18085;DHT22;9169;44.492;11.372;2023-10-08T13:19:23;40.90;31.70
18085;DHT22;9169;44.492;11.372;2023-10-08T13:21:53;41.00;31.20
18085;DHT22;9169;44.492;11.372;2023-10-08T13:24:22;41.10;31.50
18085;DHT22;9169;44.492;11.372;2023-10-08T13:26:52;41.30;30.70
18085;DHT22;9169;44.492;11.372;2023-10-08T13:29:21;41.40;30.60
18085;DHT22;9169;44.492;11.372;2023-10-08T13:31:51;41.60;30.30
18085;DHT22;9169;44.492;11.372;2023-10-08T13:34:22;41.80;30.60
18085;DHT22;9169;44.492;11.372;2023-10-08T13:36:54;42.10;30.50
18085;DHT22;9169;44.492;11.372;2023-10-08T13:39:23;42.30;30.30
18085;DHT22;9169;44.492;11.372;2023-10-08T13:41:52;42.40;29.40
18085;DHT22;9169;44.492;11.372;2023-10-08T13:44:24;42.20;28.70
18085;DHT22;9169;44.492;11.372;2023-10-08T13:46:57;42.10;29.10
18085;DHT22;9169;44.492;11.372;2023-10-08T13:49:29;41.80;28.90
18085;DHT22;9169;44.492;11.372;2023-10-08T13:51:57;41.30;28.80
18085;DHT22;9169;44.492;11.372;2023-10-08T13:54:26;40.80;29.50
18085;DHT22;9169;44.492;11.372;2023-10-08T13:56:57;40.40;29.30
18085;DHT22;9169;44.492;11.372;2023-10-08T13:59:28;39.90;29.40
18085;DHT22;9169;44.492;11.372;2023-10-08T14:01:59;39.40;29.60
18085;DHT22;9169;44.492;11.372;2023-10-08T14:04:31;39.00;29.70
18085;DHT22;9169;44.492;11.372;2023-10-08T14:07:07;38.60;29.80
18085;DHT22;9169;44.492;11.372;2023-10-08T14:09:38;38.20;30.10
18085;DHT22;9169;44.492;11.372;2023-10-08T14:12:09;37.80;30.40
18085;DHT22;9169;44.492;11.372;2023-10-08T14:14:39;37.50;30.30
18085;DHT22;9169;44.492;11.372;2023-10-08T14:17:11;37.10;30.50
18085;DHT22;9169;44.492;11.372;2023-10-08T14:19:44;36.80;30.80
18085;DHT22;9169;44.492;11.372;2023-10-08T14:22:36;36.50;31.20
18085;DHT22;9169;44.492;11.372;2023-10-08T14:25:07;36.30;31.60
18085;DHT22;9169;44.492;11.372;2023-10-08T14:27:39;36.00;31.70
18085;DHT22;9169;44.492;11.372;2023-10-08T14:30:09;35.90;31.90
18085;DHT22;9169;44.492;11.372;2023-10-08T14:32:42;35.60;32.40
18085;DHT22;9169;44.492;11.372;2023-10-08T14:35:15;35.40;32.00
18085;DHT22;9169;44.492;11.372;2023-10-08T14:38:01;35.20;32.20
18085;DHT22;9169;44.492;11.372;2023-10-08T14:40:48;35.00;32.30
18085;DHT22;9169;44.492;11.372;2023-10-08T14:43:34;34.80;32.50
18085;DHT22;9169;44.492;11.372;2023-10-08T14:46:05;34.60;32.60
18085;DHT22;9169;44.492;11.372;2023-10-08T14:48:36;34.40;32.50
18085;DHT22;9169;44.492;11.372;2023-10-08T14:51:09;34.30;32.70
18085;DHT22;9169;44.492;11.372;2023-10-08T14:53:46;34.20;32.60
18085;DHT22;9169;44.492;11.372;2023-10-08T14:56:15;34.00;32.80
18085;DHT22;9169;44.492;11.372;2023-10-08T14:58:46;33.90;32.80
18085;DHT22;9169;44.492;11.372;2023-10-08T15:01:16;33.80;33.00
18085;DHT22;9169;44.492;11.372;2023-10-08T15:03:47;33.70;33.10
18085;DHT22;9169;44.492;11.372;2023-10-08T15:06:17;33.60;32.90
18085;DHT22;9169;44.492;11.372;2023-10-08T15:08:46;33.60;32.90
18085;DHT22;9169;44.492;11.372;2023-10-08T15:11:17;33.50;32.90
18085;DHT22;9169;44.492;11.372;2023-10-08T15:13:46;33.40;32.70
18085;DHT22;9169;44.492;11.372;2023-10-08T15:16:17;33.40;32.70
18085;DHT22;9169;44.492;11.372;2023-10-08T15:18:48;33.30;32.80
18085;DHT22;9169;44.492;11.372;2023-10-08T15:21:19;33.20;33.00
18085;DHT22;9169;44.492;11.372;2023-10-08T15:23:49;33.10;33.00
18085;DHT22;9169;44.492;11.372;2023-10-08T15:26:18;33.00;33.10
18085;DHT22;9169;44.492;11.372;2023-10-08T15:28:47;33.00;33.20
18085;DHT22;9169;44.492;11.372;2023-10-08T15:31:15;32.90;33.20
18085;DHT22;9169;44.492;11.372;2023-10-08T15:33:44;32.80;33.20
18085;DHT22;9169;44.492;11.372;2023-10-08T15:36:13;32.80;33.30
18085;DHT22;9169;44.492;11.372;2023-10-08T15:38:43;32.70;33.30
18085;DHT22;9169;44.492;11.372;2023-10-08T15:41:12;32.60;33.30
18085;DHT22;9169;44.492;11.372;2023-10-08T15:43:43;32.50;33.10
18085;DHT22;9169;44.492;11.372;2023-10-08T15:46:14;32.50;33.20
18085;DHT22;9169;44.492;11.372;2023-10-08T15:48:43;32.40;33.30
18085;DHT22;9169;44.492;11.372;2023-10-08T15:51:12;32.30;33.40
18085;DHT22;9169;44.492;11.372;2023-10-08T15:53:42;32.30;33.40
18085;DHT22;9169;44.492;11.372;2023-10-08T15:56:11;32.20;33.50
18085;DHT22;9169;44.492;11.372;2023-10-08T15:58:40;32.20;33.50
18085;DHT22;9169;44.492;11.372;2023-10-08T16:01:21;32.10;33.40
18085;DHT22;9169;44.492;11.372;2023-10-08T16:03:50;32.10;33.60
18085;DHT22;9169;44.492;11.372;2023-10-08T16:06:19;32.00;33.60
18085;DHT22;9169;44.492;11.372;2023-10-08T16:08:50;31.90;33.60
18085;DHT22;9169;44.492;11.372;2023-10-08T16:11:19;31.90;33.70
18085;DHT22;9169;44.492;11.372;2023-10-08T16:13:48;31.80;33.80